Rome, Wisconsin
Current Conditions -  °F | °C
As of 9:20 PM on Monday 26 Jan 2015 (Local Time) from KISW Reporting Station
Overcast Overcast  
Wind Chill: -5°   Ceiling: 1200
Heat Index: -5°   Visibility: 8mi
Dew Point: -7°   Wind: 3mph
Humidity: 85%   Direction: 60°ENE
Pressure: 29.9"   Gusts: NA
Location:  44.252°N, 89.9853°W
Report Text: KISW 270320Z AUTO 06003KT 8SM BKN012 BKN019 OVC036 M05/M07 A2990 RMK AO2 T10501072
Loading
Personal Weather Stations






























Interactive Weather Map New forecast layout! Learn more

10-Day Weather Forecast

Advertisements
Track Severe Weather on mobile